Szafir — 5BFC3 — position and weather

sailwx.info

Track history (hours):
 
Tides and Currents Weather Stations Pressure Air Temp Water Temp Dewpoint Dewpoint Depression Visibility Wind Speed Wind Dir Waves Ship Positions

Szafir

Last reported at 2014-Sep-16 04:28 UTC. Time now 2014-Sep-16 05:02 UTC.
Position N 53°55' E 007°49'.

Length 113 m; draft 5.4 m.

Type: Ship. MMSI: 209366000.

Date/timePositionNaut miles runAvg speedWind from/ knotsBaromVisibWave heightAir tempDewpointWater temp
2014-Sep-16 04:28N 53°55' E 007°49'0 0.0
2014-Sep-16 03:13N 53°55' E 007°49'0 0.0
2014-Sep-16 02:28N 53°55' E 007°49'0 0.0
2014-Sep-16 01:31N 53°55' E 007°49'0 0.0
2014-Sep-15 23:31N 53°55' E 007°49'0 0.0
2014-Sep-15 22:28N 53°55' E 007°49'0 0.0
2014-Sep-15 21:22N 53°55' E 007°49'0 0.0
2014-Sep-15 20:31N 53°55' E 007°49'0 0.0
2014-Sep-15 19:31N 53°55' E 007°49'0 0.0
2014-Sep-15 18:31N 53°55' E 007°49'0 0.0
2014-Sep-15 17:10N 53°55' E 007°49'0 0.0
2014-Sep-15 10:28N 53°55' E 007°49'0 0.0
2014-Sep-15 09:31N 53°55' E 007°49'0 0.0
2014-Sep-15 08:31N 53°55' E 007°49'0 0.0
2014-Sep-15 07:25N 53°55' E 007°49'0 0.0
2014-Sep-15 06:25N 53°55' E 007°49'0 0.0
2014-Sep-15 05:31N 53°55' E 007°49'0 0.0
2014-Sep-15 04:31N 53°55' E 007°49'0 0.0
2014-Sep-15 03:31N 53°55' E 007°49'0 0.0
2014-Sep-15 02:25N 53°55' E 007°49'0 0.0
2014-Sep-14 23:28N 53°55' E 007°49'0 0.1
2014-Sep-14 22:31N 53°55' E 007°49'0 0.0
2014-Sep-14 21:19N 53°55' E 007°49'0 0.0
2014-Sep-14 20:31N 53°55' E 007°49'0 0.0
2014-Sep-14 19:13N 53°55' E 007°49'0 0.0
2014-Sep-14 18:31N 53°55' E 007°49'0 0.0
2014-Sep-14 17:31N 53°55' E 007°49'0 0.0
2014-Sep-14 16:31N 53°55' E 007°49'0 0.1
2014-Sep-14 15:10N 53°55' E 007°49'0 0.0
2014-Sep-14 13:31N 53°55' E 007°49'0 0.0
2014-Sep-14 12:19N 53°55' E 007°49'0 0.0
2014-Sep-14 11:31N 53°55' E 007°49'0 0.0
2014-Sep-14 10:22N 53°55' E 007°49'0 0.0
2014-Sep-14 09:31N 53°55' E 007°49'0 0.0
2014-Sep-14 08:25N 53°55' E 007°49'0 0.0
2014-Sep-14 06:31N 53°55' E 007°49'0 0.0
2014-Sep-14 05:31N 53°55' E 007°49'0 0.0
2014-Sep-14 03:19N 53°55' E 007°49'0 0.0
2014-Sep-13 20:10N 53°55' E 007°49'0 0.0
2014-Sep-13 17:25N 53°55' E 007°49'0 0.0
2014-Sep-13 16:31N 53°55' E 007°49'0 0.0
2014-Sep-13 15:28N 53°55' E 007°49'0 0.0
2014-Sep-13 14:31N 53°55' E 007°49'0 0.0
2014-Sep-13 12:13N 53°55' E 007°49'0 0.0
2014-Sep-13 11:31N 53°55' E 007°49'0 0.0
2014-Sep-13 10:28N 53°55' E 007°49'0 0.0
2014-Sep-13 09:28N 53°55' E 007°49'0 0.0
2014-Sep-13 03:16N 53°55' E 007°49'0 0.0
2014-Sep-12 21:31N 53°55' E 007°49'0 0.0
2014-Sep-12 20:31N 53°55' E 007°49'0 0.0
2014-Sep-12 19:28N 53°55' E 007°49'0 0.0
2014-Sep-12 18:25N 53°55' E 007°49'0 0.0
2014-Sep-12 16:25N 53°55' E 007°49'0 0.0
2014-Sep-12 15:31N 53°55' E 007°49'0 0.0
2014-Sep-12 14:25N 53°55' E 007°49'0 0.0
2014-Sep-12 13:31N 53°55' E 007°49'0 0.0
2014-Sep-12 06:07N 53°55' E 007°49'0 0.0
2014-Sep-12 04:04N 53°55' E 007°49'0 0.0
2014-Sep-12 03:28N 53°55' E 007°49'3 0.4
2014-Sep-11 19:34N 53°58' E 007°50'10 9.8
2014-Sep-11 18:34N 54°01' E 008°06'1414.3
2014-Sep-11 17:33N 53°59' E 008°30'1414.1
2014-Sep-11 16:33N 53°50' E 008°49'1212.2
2014-Sep-11 15:33N 53°53' E 009°09'9 8.7
2014-Sep-11 14:33N 53°49' E 009°22'9 9.2
2014-Sep-11 13:33N 53°41' E 009°30'9 8.9
2014-Sep-11 12:33N 53°34' E 009°40'9 9.1
2014-Sep-11 11:33N 53°33' E 009°55'2 1.5
2014-Sep-11 10:31N 53°32' E 009°57'0 0.0
2014-Sep-11 09:28N 53°32' E 009°57'0 0.0
2014-Sep-11 08:31N 53°32' E 009°57'0 0.0
2014-Sep-11 07:28N 53°32' E 009°57'0 0.0
2014-Sep-11 06:28N 53°32' E 009°57'0 0.0
2014-Sep-11 05:28N 53°32' E 009°57'0 0.0
2014-Sep-11 04:28N 53°32' E 009°57'0 0.0
2014-Sep-11 03:31N 53°32' E 009°57'0 0.0
2014-Sep-11 02:31N 53°32' E 009°57'0 0.0
2014-Sep-11 01:31N 53°32' E 009°57'0 0.0
2014-Sep-11 00:31N 53°32' E 009°57'0 0.0
2014-Sep-10 23:28N 53°32' E 009°57'0 0.0
2014-Sep-10 22:31N 53°32' E 009°57'0 0.0
2014-Sep-10 21:31N 53°32' E 009°57'0 0.0
2014-Sep-10 20:31N 53°32' E 009°57'0 0.0
2014-Sep-10 19:31N 53°32' E 009°57'0 0.0
2014-Sep-10 18:31N 53°32' E 009°57'0 0.0
2014-Sep-10 17:31N 53°32' E 009°57'0 0.0
2014-Sep-10 16:28N 53°32' E 009°57'0 0.0
2014-Sep-10 15:31N 53°32' E 009°57'0 0.0
2014-Sep-10 14:28N 53°32' E 009°57'0 0.0
2014-Sep-10 13:31N 53°32' E 009°57'0 0.0
2014-Sep-10 12:31N 53°32' E 009°57'0 0.0
2014-Sep-10 11:31N 53°32' E 009°57'0 0.0
2014-Sep-10 10:25N 53°32' E 009°57'0 0.0
2014-Sep-10 09:28N 53°32' E 009°57'0 0.0
2014-Sep-10 08:31N 53°32' E 009°57'0 0.0
2014-Sep-10 07:31N 53°32' E 009°57'0 0.0
2014-Sep-10 06:25N 53°32' E 009°57'0 0.0
2014-Sep-10 05:28N 53°32' E 009°57'0 0.0
2014-Sep-10 04:28N 53°32' E 009°57'0 0.0
2014-Sep-10 03:31N 53°32' E 009°57'0 0.0
2014-Sep-10 02:31N 53°32' E 009°57'0 0.0
2014-Sep-10 01:28N 53°32' E 009°57'0 0.0
2014-Sep-10 00:31N 53°32' E 009°57'0 0.0
2014-Sep-09 23:31N 53°32' E 009°57'0 0.0
2014-Sep-09 22:28N 53°32' E 009°57'0 0.0
2014-Sep-09 21:28N 53°32' E 009°57'0 0.0
2014-Sep-09 20:28N 53°32' E 009°57'0 0.0
2014-Sep-09 19:22N 53°32' E 009°57'0 0.0
2014-Sep-09 18:31N 53°32' E 009°57'0 0.0
2014-Sep-09 17:31N 53°32' E 009°57'0 0.0
2014-Sep-09 16:28N 53°32' E 009°57'0 0.0
2014-Sep-09 15:25N 53°32' E 009°57'0 0.0
2014-Sep-09 14:31N 53°32' E 009°57'0 0.0
2014-Sep-09 13:22N 53°32' E 009°57'0 0.0
2014-Sep-09 12:28N 53°32' E 009°57'0 0.0
2014-Sep-09 11:28N 53°32' E 009°57'0 0.0
2014-Sep-09 10:31N 53°32' E 009°57'0 0.0
2014-Sep-09 09:28N 53°32' E 009°57'0 0.0
2014-Sep-09 08:28N 53°32' E 009°57'0 0.0
2014-Sep-09 07:31N 53°32' E 009°57'0 0.0
2014-Sep-09 06:31N 53°32' E 009°57'0 0.0
2014-Sep-09 05:28N 53°32' E 009°57'0 0.0
2014-Sep-09 04:28N 53°32' E 009°57'0 0.0
2014-Sep-09 03:28N 53°32' E 009°57'0 0.0
2014-Sep-09 02:31N 53°32' E 009°57'0 0.0
2014-Sep-09 01:28N 53°32' E 009°57'0 0.0
2014-Sep-09 00:31N 53°32' E 009°57'0 0.0
2014-Sep-08 23:32N 53°32' E 009°57'0 0.0
2014-Sep-08 22:28N 53°32' E 009°57'0 0.0
2014-Sep-08 21:28N 53°32' E 009°57'0 0.0
2014-Sep-08 20:28N 53°32' E 009°57'0 0.0
2014-Sep-08 19:28N 53°32' E 009°57'0 0.0
2014-Sep-08 18:28N 53°32' E 009°57'0 0.0
2014-Sep-08 17:28N 53°32' E 009°57'0 0.0
2014-Sep-08 16:28N 53°32' E 009°57'0 0.0
2014-Sep-08 15:28N 53°32' E 009°57'0 0.0
2014-Sep-08 14:28N 53°32' E 009°57'0 0.0
2014-Sep-08 13:22N 53°32' E 009°57'0 0.0
2014-Sep-08 12:31N 53°32' E 009°57'0 0.0
2014-Sep-08 11:31N 53°32' E 009°57'0 0.0
2014-Sep-08 10:25N 53°32' E 009°57'0 0.0
2014-Sep-08 09:28N 53°32' E 009°57'0 0.0
2014-Sep-08 08:28N 53°32' E 009°57'0 0.0
2014-Sep-08 07:28N 53°32' E 009°57'0 0.0
2014-Sep-08 06:25N 53°32' E 009°57'0 0.0
2014-Sep-08 05:28N 53°32' E 009°57'0 0.0
2014-Sep-08 04:31N 53°32' E 009°57'0 0.0
2014-Sep-08 03:28N 53°32' E 009°57'0 0.1
2014-Sep-08 02:34N 53°32' E 009°57'7 6.8
2014-Sep-08 01:33N 53°34' E 009°46'1211.8
2014-Sep-08 00:33N 53°41' E 009°30'1313.2
2014-Sep-07 23:32N 53°52' E 009°17'2211.3
2014-Sep-07 21:33N 53°55' E 008°40'1313.5
2014-Sep-07 20:33N 53°59' E 008°18'9 9.4
2014-Sep-07 19:33N 54°01' E 008°03'4 3.3
2014-Sep-07 18:23N 54°03' E 008°09'0 0.0
2014-Sep-07 17:29N 54°03' E 008°09'0 0.0
2014-Sep-07 16:20N 54°03' E 008°09'0 0.1
2014-Sep-07 15:29N 54°03' E 008°09'0 0.0
2014-Sep-07 14:32N 54°03' E 008°09'0 0.0
2014-Sep-07 13:32N 54°03' E 008°09'0 0.0
2014-Sep-07 12:29N 54°03' E 008°09'0 0.0
2014-Sep-07 11:32N 54°03' E 008°09'0 0.1
2014-Sep-07 10:29N 54°03' E 008°09'0 0.0
2014-Sep-07 09:32N 54°03' E 008°09'0 0.0
2014-Sep-07 08:32N 54°03' E 008°09'0 0.0
2014-Sep-07 07:32N 54°03' E 008°09'0 0.0
2014-Sep-07 06:32N 54°03' E 008°09'0 0.0
2014-Sep-07 05:32N 54°03' E 008°09'0 0.1
2014-Sep-07 04:32N 54°03' E 008°09'0 0.1
2014-Sep-07 03:29N 54°03' E 008°09'0 0.0
2014-Sep-07 02:32N 54°03' E 008°09'0 0.0
2014-Sep-07 01:32N 54°03' E 008°09'0 0.0
2014-Sep-07 00:32N 54°03' E 008°09'0 0.0
2014-Sep-06 23:32N 54°03' E 008°09'0 0.0
2014-Sep-06 22:29N 54°03' E 008°09'0 0.1
2014-Sep-06 21:32N 54°03' E 008°09'0 0.0
2014-Sep-06 20:26N 54°03' E 008°09'0 0.0
2014-Sep-06 19:29N 54°03' E 008°09'0 0.0
2014-Sep-06 18:32N 54°03' E 008°09'0 0.0
2014-Sep-06 17:32N 54°03' E 008°09'0 0.1
2014-Sep-06 16:29N 54°03' E 008°09'0 0.1
2014-Sep-06 15:32N 54°03' E 008°09'0 0.0
2014-Sep-06 14:32N 54°03' E 008°09'0 0.0
2014-Sep-06 13:32N 54°03' E 008°09'0 0.0
2014-Sep-06 12:29N 54°03' E 008°09'0 0.0
2014-Sep-06 11:29N 54°03' E 008°09'0 0.0
2014-Sep-06 10:32N 54°03' E 008°09'0 0.0
2014-Sep-06 09:32N 54°03' E 008°09'0 0.1
2014-Sep-06 08:32N 54°03' E 008°09'0 0.0
2014-Sep-06 07:32N 54°03' E 008°09'0 0.0
2014-Sep-06 06:32N 54°03' E 008°09'0 0.0
2014-Sep-06 05:32N 54°03' E 008°09'0 0.0
2014-Sep-06 04:32N 54°03' E 008°09'  
Track history (hours):
 
Tides and Currents Weather Stations Pressure Air Temp Water Temp Dewpoint Dewpoint Depression Visibility Wind Speed Wind Dir Waves Ship Positions

Szafir

Last reported at 2014-Sep-16 04:28 UTC. Time now 2014-Sep-16 05:02 UTC.
Position N 53°55' E 007°49'.

Length 113 m; draft 5.4 m.

Type: Ship. MMSI: 209366000.

Date/timePositionNaut miles runAvg speedWind from/ knotsBaromVisibWave heightAir tempDewpointWater temp
2014-Sep-16 04:28N 53°55' E 007°49'0 0.0
2014-Sep-16 03:13N 53°55' E 007°49'0 0.0
2014-Sep-16 02:28N 53°55' E 007°49'0 0.0
2014-Sep-16 01:31N 53°55' E 007°49'0 0.0
2014-Sep-15 23:31N 53°55' E 007°49'0 0.0
2014-Sep-15 22:28N 53°55' E 007°49'0 0.0
2014-Sep-15 21:22N 53°55' E 007°49'0 0.0
2014-Sep-15 20:31N 53°55' E 007°49'0 0.0
2014-Sep-15 19:31N 53°55' E 007°49'0 0.0
2014-Sep-15 18:31N 53°55' E 007°49'0 0.0
2014-Sep-15 17:10N 53°55' E 007°49'0 0.0
2014-Sep-15 10:28N 53°55' E 007°49'0 0.0
2014-Sep-15 09:31N 53°55' E 007°49'0 0.0
2014-Sep-15 08:31N 53°55' E 007°49'0 0.0
2014-Sep-15 07:25N 53°55' E 007°49'0 0.0
2014-Sep-15 06:25N 53°55' E 007°49'0 0.0
2014-Sep-15 05:31N 53°55' E 007°49'0 0.0
2014-Sep-15 04:31N 53°55' E 007°49'0 0.0
2014-Sep-15 03:31N 53°55' E 007°49'0 0.0
2014-Sep-15 02:25N 53°55' E 007°49'0 0.0
2014-Sep-14 23:28N 53°55' E 007°49'0 0.1
2014-Sep-14 22:31N 53°55' E 007°49'0 0.0
2014-Sep-14 21:19N 53°55' E 007°49'0 0.0
2014-Sep-14 20:31N 53°55' E 007°49'0 0.0
2014-Sep-14 19:13N 53°55' E 007°49'0 0.0
2014-Sep-14 18:31N 53°55' E 007°49'0 0.0
2014-Sep-14 17:31N 53°55' E 007°49'0 0.0
2014-Sep-14 16:31N 53°55' E 007°49'0 0.1
2014-Sep-14 15:10N 53°55' E 007°49'0 0.0
2014-Sep-14 13:31N 53°55' E 007°49'0 0.0
2014-Sep-14 12:19N 53°55' E 007°49'0 0.0
2014-Sep-14 11:31N 53°55' E 007°49'0 0.0
2014-Sep-14 10:22N 53°55' E 007°49'0 0.0
2014-Sep-14 09:31N 53°55' E 007°49'0 0.0
2014-Sep-14 08:25N 53°55' E 007°49'0 0.0
2014-Sep-14 06:31N 53°55' E 007°49'0 0.0
2014-Sep-14 05:31N 53°55' E 007°49'0 0.0
2014-Sep-14 03:19N 53°55' E 007°49'0 0.0
2014-Sep-13 20:10N 53°55' E 007°49'0 0.0
2014-Sep-13 17:25N 53°55' E 007°49'0 0.0
2014-Sep-13 16:31N 53°55' E 007°49'0 0.0
2014-Sep-13 15:28N 53°55' E 007°49'0 0.0
2014-Sep-13 14:31N 53°55' E 007°49'0 0.0
2014-Sep-13 12:13N 53°55' E 007°49'0 0.0
2014-Sep-13 11:31N 53°55' E 007°49'0 0.0
2014-Sep-13 10:28N 53°55' E 007°49'0 0.0
2014-Sep-13 09:28N 53°55' E 007°49'0 0.0
2014-Sep-13 03:16N 53°55' E 007°49'0 0.0
2014-Sep-12 21:31N 53°55' E 007°49'0 0.0
2014-Sep-12 20:31N 53°55' E 007°49'0 0.0
2014-Sep-12 19:28N 53°55' E 007°49'0 0.0
2014-Sep-12 18:25N 53°55' E 007°49'0 0.0
2014-Sep-12 16:25N 53°55' E 007°49'0 0.0
2014-Sep-12 15:31N 53°55' E 007°49'0 0.0
2014-Sep-12 14:25N 53°55' E 007°49'0 0.0
2014-Sep-12 13:31N 53°55' E 007°49'0 0.0
2014-Sep-12 06:07N 53°55' E 007°49'0 0.0
2014-Sep-12 04:04N 53°55' E 007°49'0 0.0
2014-Sep-12 03:28N 53°55' E 007°49'3 0.4
2014-Sep-11 19:34N 53°58' E 007°50'10 9.8
2014-Sep-11 18:34N 54°01' E 008°06'1414.3
2014-Sep-11 17:33N 53°59' E 008°30'1414.1
2014-Sep-11 16:33N 53°50' E 008°49'1212.2
2014-Sep-11 15:33N 53°53' E 009°09'9 8.7
2014-Sep-11 14:33N 53°49' E 009°22'9 9.2
2014-Sep-11 13:33N 53°41' E 009°30'9 8.9
2014-Sep-11 12:33N 53°34' E 009°40'9 9.1
2014-Sep-11 11:33N 53°33' E 009°55'2 1.5
2014-Sep-11 10:31N 53°32' E 009°57'0 0.0
2014-Sep-11 09:28N 53°32' E 009°57'0 0.0
2014-Sep-11 08:31N 53°32' E 009°57'0 0.0
2014-Sep-11 07:28N 53°32' E 009°57'0 0.0
2014-Sep-11 06:28N 53°32' E 009°57'0 0.0
2014-Sep-11 05:28N 53°32' E 009°57'0 0.0
2014-Sep-11 04:28N 53°32' E 009°57'0 0.0
2014-Sep-11 03:31N 53°32' E 009°57'0 0.0
2014-Sep-11 02:31N 53°32' E 009°57'0 0.0
2014-Sep-11 01:31N 53°32' E 009°57'0 0.0
2014-Sep-11 00:31N 53°32' E 009°57'0 0.0
2014-Sep-10 23:28N 53°32' E 009°57'0 0.0
2014-Sep-10 22:31N 53°32' E 009°57'0 0.0
2014-Sep-10 21:31N 53°32' E 009°57'0 0.0
2014-Sep-10 20:31N 53°32' E 009°57'0 0.0
2014-Sep-10 19:31N 53°32' E 009°57'0 0.0
2014-Sep-10 18:31N 53°32' E 009°57'0 0.0
2014-Sep-10 17:31N 53°32' E 009°57'0 0.0
2014-Sep-10 16:28N 53°32' E 009°57'0 0.0
2014-Sep-10 15:31N 53°32' E 009°57'0 0.0
2014-Sep-10 14:28N 53°32' E 009°57'0 0.0
2014-Sep-10 13:31N 53°32' E 009°57'0 0.0
2014-Sep-10 12:31N 53°32' E 009°57'0 0.0
2014-Sep-10 11:31N 53°32' E 009°57'0 0.0
2014-Sep-10 10:25N 53°32' E 009°57'0 0.0
2014-Sep-10 09:28N 53°32' E 009°57'0 0.0
2014-Sep-10 08:31N 53°32' E 009°57'0 0.0
2014-Sep-10 07:31N 53°32' E 009°57'0 0.0
2014-Sep-10 06:25N 53°32' E 009°57'0 0.0
2014-Sep-10 05:28N 53°32' E 009°57'0 0.0
2014-Sep-10 04:28N 53°32' E 009°57'0 0.0
2014-Sep-10 03:31N 53°32' E 009°57'0 0.0
2014-Sep-10 02:31N 53°32' E 009°57'0 0.0
2014-Sep-10 01:28N 53°32' E 009°57'0 0.0
2014-Sep-10 00:31N 53°32' E 009°57'0 0.0
2014-Sep-09 23:31N 53°32' E 009°57'0 0.0
2014-Sep-09 22:28N 53°32' E 009°57'0 0.0
2014-Sep-09 21:28N 53°32' E 009°57'0 0.0
2014-Sep-09 20:28N 53°32' E 009°57'0 0.0
2014-Sep-09 19:22N 53°32' E 009°57'0 0.0
2014-Sep-09 18:31N 53°32' E 009°57'0 0.0
2014-Sep-09 17:31N 53°32' E 009°57'0 0.0
2014-Sep-09 16:28N 53°32' E 009°57'0 0.0
2014-Sep-09 15:25N 53°32' E 009°57'0 0.0
2014-Sep-09 14:31N 53°32' E 009°57'0 0.0
2014-Sep-09 13:22N 53°32' E 009°57'0 0.0
2014-Sep-09 12:28N 53°32' E 009°57'0 0.0
2014-Sep-09 11:28N 53°32' E 009°57'0 0.0
2014-Sep-09 10:31N 53°32' E 009°57'0 0.0
2014-Sep-09 09:28N 53°32' E 009°57'0 0.0
2014-Sep-09 08:28N 53°32' E 009°57'0 0.0
2014-Sep-09 07:31N 53°32' E 009°57'0 0.0
2014-Sep-09 06:31N 53°32' E 009°57'0 0.0
2014-Sep-09 05:28N 53°32' E 009°57'0 0.0
2014-Sep-09 04:28N 53°32' E 009°57'0 0.0
2014-Sep-09 03:28N 53°32' E 009°57'0 0.0
2014-Sep-09 02:31N 53°32' E 009°57'0 0.0
2014-Sep-09 01:28N 53°32' E 009°57'0 0.0
2014-Sep-09 00:31N 53°32' E 009°57'0 0.0
2014-Sep-08 23:32N 53°32' E 009°57'0 0.0
2014-Sep-08 22:28N 53°32' E 009°57'0 0.0
2014-Sep-08 21:28N 53°32' E 009°57'0 0.0
2014-Sep-08 20:28N 53°32' E 009°57'0 0.0
2014-Sep-08 19:28N 53°32' E 009°57'0 0.0
2014-Sep-08 18:28N 53°32' E 009°57'0 0.0
2014-Sep-08 17:28N 53°32' E 009°57'0 0.0
2014-Sep-08 16:28N 53°32' E 009°57'0 0.0
2014-Sep-08 15:28N 53°32' E 009°57'0 0.0
2014-Sep-08 14:28N 53°32' E 009°57'0 0.0
2014-Sep-08 13:22N 53°32' E 009°57'0 0.0
2014-Sep-08 12:31N 53°32' E 009°57'0 0.0
2014-Sep-08 11:31N 53°32' E 009°57'0 0.0
2014-Sep-08 10:25N 53°32' E 009°57'0 0.0
2014-Sep-08 09:28N 53°32' E 009°57'0 0.0
2014-Sep-08 08:28N 53°32' E 009°57'0 0.0
2014-Sep-08 07:28N 53°32' E 009°57'0 0.0
2014-Sep-08 06:25N 53°32' E 009°57'0 0.0
2014-Sep-08 05:28N 53°32' E 009°57'0 0.0
2014-Sep-08 04:31N 53°32' E 009°57'0 0.0
2014-Sep-08 03:28N 53°32' E 009°57'0 0.1
2014-Sep-08 02:34N 53°32' E 009°57'7 6.8
2014-Sep-08 01:33N 53°34' E 009°46'1211.8
2014-Sep-08 00:33N 53°41' E 009°30'1313.2
2014-Sep-07 23:32N 53°52' E 009°17'2211.3
2014-Sep-07 21:33N 53°55' E 008°40'1313.5
2014-Sep-07 20:33N 53°59' E 008°18'9 9.4
2014-Sep-07 19:33N 54°01' E 008°03'4 3.3
2014-Sep-07 18:23N 54°03' E 008°09'0 0.0
2014-Sep-07 17:29N 54°03' E 008°09'0 0.0
2014-Sep-07 16:20N 54°03' E 008°09'0 0.1
2014-Sep-07 15:29N 54°03' E 008°09'0 0.0
2014-Sep-07 14:32N 54°03' E 008°09'0 0.0
2014-Sep-07 13:32N 54°03' E 008°09'0 0.0
2014-Sep-07 12:29N 54°03' E 008°09'0 0.0
2014-Sep-07 11:32N 54°03' E 008°09'0 0.1
2014-Sep-07 10:29N 54°03' E 008°09'0 0.0
2014-Sep-07 09:32N 54°03' E 008°09'0 0.0
2014-Sep-07 08:32N 54°03' E 008°09'0 0.0
2014-Sep-07 07:32N 54°03' E 008°09'0 0.0
2014-Sep-07 06:32N 54°03' E 008°09'0 0.0
2014-Sep-07 05:32N 54°03' E 008°09'0 0.1
2014-Sep-07 04:32N 54°03' E 008°09'0 0.1
2014-Sep-07 03:29N 54°03' E 008°09'0 0.0
2014-Sep-07 02:32N 54°03' E 008°09'0 0.0
2014-Sep-07 01:32N 54°03' E 008°09'0 0.0
2014-Sep-07 00:32N 54°03' E 008°09'0 0.0
2014-Sep-06 23:32N 54°03' E 008°09'0 0.0
2014-Sep-06 22:29N 54°03' E 008°09'0 0.1
2014-Sep-06 21:32N 54°03' E 008°09'0 0.0
2014-Sep-06 20:26N 54°03' E 008°09'0 0.0
2014-Sep-06 19:29N 54°03' E 008°09'0 0.0
2014-Sep-06 18:32N 54°03' E 008°09'0 0.0
2014-Sep-06 17:32N 54°03' E 008°09'0 0.1
2014-Sep-06 16:29N 54°03' E 008°09'0 0.1
2014-Sep-06 15:32N 54°03' E 008°09'0 0.0
2014-Sep-06 14:32N 54°03' E 008°09'0 0.0
2014-Sep-06 13:32N 54°03' E 008°09'0 0.0
2014-Sep-06 12:29N 54°03' E 008°09'0 0.0
2014-Sep-06 11:29N 54°03' E 008°09'0 0.0
2014-Sep-06 10:32N 54°03' E 008°09'0 0.0
2014-Sep-06 09:32N 54°03' E 008°09'0 0.1
2014-Sep-06 08:32N 54°03' E 008°09'0 0.0
2014-Sep-06 07:32N 54°03' E 008°09'0 0.0
2014-Sep-06 06:32N 54°03' E 008°09'0 0.0
2014-Sep-06 05:32N 54°03' E 008°09'0 0.0
2014-Sep-06 04:32N 54°03' E 008°09'  

Dump ship's entire track history